M I D A S
Marine Information and Data Acquisition System
Tripno 2001 of the Zeeleeuw from 2010-12-14 08:10:19 to 2010-12-14 15:06:46
Back to CruiseResearch ActivitiesStationsMapUnderway DataData graphs

EquipmentUnitsComment
TimeDGPSUTC
LatitudeDGPSDM.mWGS84
LongitudeDGPSDM.mWGS84
HeadingGyrodeg 
SOGDGPSknotsSpeed over ground
COGDGPSdegCourse over ground
DepthEcho soundermeters200 kHz
Missing or incorrect values are displayed as -999
Navigation data collected by the RV Zeeleeuw from 2010-12-14 07:22:28 to 2010-12-14 15:12:00
Time Latitude Longitude Heading SOG COG Depth
2010-12-14 07:23:33 51°13.662 2°55.959 125.3 -999 222 -999
2010-12-14 07:24:33 51°13.662 2°55.959 124.6 -999 173 9.3
2010-12-14 07:25:33 51°13.662 2°55.959 125 -999 174 9.3
2010-12-14 07:26:34 51°13.662 2°55.96 125 -999 350 9.3
2010-12-14 07:27:33 51°13.662 2°55.96 124.6 -999 193 9.3
2010-12-14 07:28:33 51°13.662 2°55.959 123.9 0.1 137 9.3
2010-12-14 07:29:33 51°13.662 2°55.96 126.9 -999 277 -999
2010-12-14 07:30:34 51°13.662 2°55.96 126.9 -999 65 -999
2010-12-14 07:31:33 51°13.662 2°55.96 126.9 -999 226 9.2
2010-12-14 07:32:32 51°13.661 2°55.96 126.7 -999 52 9.2
2010-12-14 07:33:30 51°13.661 2°55.96 126.7 -999 346 -999
2010-12-14 07:34:30 51°13.66 2°55.96 126.7 -999 140 9.2
2010-12-14 07:35:30 51°13.661 2°55.96 126.7 -999 45 9.2
2010-12-14 07:36:30 51°13.661 2°55.96 126.7 -999 171 9.1
2010-12-14 07:37:30 51°13.661 2°55.96 126.7 -999 249 9.2
2010-12-14 07:38:30 51°13.661 2°55.96 126.7 -999 42 9.1
2010-12-14 07:39:30 51°13.661 2°55.96 126.6 -999 4 9.1
2010-12-14 07:40:30 51°13.661 2°55.961 126.6 -999 68 9.1
2010-12-14 07:41:30 51°13.66 2°55.959 126.6 -999 285 9.1
2010-12-14 07:42:30 51°13.66 2°55.96 126.6 -999 199 9.2
2010-12-14 07:43:30 51°13.66 2°55.96 126.6 -999 203 9.1
2010-12-14 07:44:30 51°13.66 2°55.96 126.6 -999 149 9.1
2010-12-14 07:45:30 51°13.661 2°55.96 126.6 -999 324 9.1
2010-12-14 07:46:30 51°13.662 2°55.96 126.6 -999 180 9.1
2010-12-14 07:47:30 51°13.662 2°55.961 126.6 -999 250 9.1
2010-12-14 07:48:30 51°13.663 2°55.961 126.6 -999 347 9
2010-12-14 07:49:30 51°13.663 2°55.961 126.6 -999 238 9.1
2010-12-14 07:50:30 51°13.663 2°55.961 126.6 -999 259 9.1
2010-12-14 07:51:30 51°13.663 2°55.961 126.6 -999 276 9
2010-12-14 07:52:30 51°13.663 2°55.96 126.6 -999 207 9
2010-12-14 07:53:33 51°13.662 2°55.96 126.4 -999 195 9
2010-12-14 07:54:33 51°13.662 2°55.96 127.8 -999 108 9
2010-12-14 07:55:32 51°13.661 2°55.961 118.4 0.1 202 9
2010-12-14 07:56:31 51°13.661 2°55.955 105.1 1.5 283 9.1
2010-12-14 07:57:34 51°13.682 2°55.846 104.7 4.8 286 -999
2010-12-14 07:58:34 51°13.696 2°55.742 97.4 2.2 279 -999
2010-12-14 07:59:33 51°13.705 2°55.752 45.2 0.4 31 14.9
2010-12-14 08:00:34 51°13.684 2°55.731 16.3 0.4 245 -999
2010-12-14 08:01:33 51°13.741 2°55.694 335.6 7.2 335 12.6
2010-12-14 08:02:29 51°13.866 2°55.602 334.5 3.1 336 11.3
2010-12-14 08:03:30 51°14.02 2°55.493 335.4 10.1 336 -999
2010-12-14 08:04:33 51°14.187 2°55.368 334.4 10.9 332 -999
2010-12-14 08:05:33 51°14.349 2°55.202 327.4 11.9 325 11.8
2010-12-14 08:06:33 51°14.519 2°55.023 328.3 12.2 326 12.8
2010-12-14 08:07:31 51°14.673 2°54.839 324.3 12.1 325 12.6
2010-12-14 08:08:30 51°14.849 2°54.663 333.4 12.9 335 13.3
2010-12-14 08:09:30 51°15.046 2°54.55 348.1 12.5 348 11.4
2010-12-14 08:10:30 51°15.25 2°54.465 342.7 12.8 341 10.5
2010-12-14 08:11:30 51°15.448 2°54.345 339.8 12.9 339 10.7
2010-12-14 08:12:30 51°15.647 2°54.217 334.9 12.9 334 11.2
2010-12-14 08:13:31 51°15.832 2°54.041 329.1 12.4 329 12.7
2010-12-14 08:14:30 51°16.011 2°53.866 330.1 12.9 329 12
2010-12-14 08:15:30 51°16.191 2°53.682 325 12.6 325 13.3
2010-12-14 08:16:30 51°16.362 2°53.482 323.9 13 322 12.5
2010-12-14 08:17:30 51°16.538 2°53.283 325.4 13.2 325 13.1
2010-12-14 08:18:30 51°16.716 2°53.09 325.9 13 327 12.9
2010-12-14 08:19:30 51°16.885 2°52.897 324.1 12.4 325 10.2
2010-12-14 08:20:30 51°17.062 2°52.715 329.5 12.5 330 10.9
2010-12-14 08:21:30 51°17.258 2°52.611 350.3 12.5 351 11.6
2010-12-14 08:22:31 51°17.472 2°52.568 353.8 12.6 352 11.1
2010-12-14 08:23:30 51°17.677 2°52.56 2.6 12.3 3 11.2
2010-12-14 08:24:30 51°17.881 2°52.574 2.1 12.3 -999 11.9
2010-12-14 08:25:30 51°18.091 2°52.578 1.5 12.7 1 12.3
2010-12-14 08:26:30 51°18.302 2°52.578 0.8 12.8 359 12
2010-12-14 08:27:30 51°18.515 2°52.577 0.8 12.5 -999 13.1
2010-12-14 08:28:30 51°18.722 2°52.571 0.3 12.7 359 13.2
2010-12-14 08:29:30 51°18.932 2°52.566 0.8 12.8 358 14.1
2010-12-14 08:30:30 51°19.144 2°52.556 359.9 12.6 357 14.3
2010-12-14 08:31:31 51°19.359 2°52.549 0.2 12.8 359 15.6
2010-12-14 08:32:30 51°19.568 2°52.541 0.3 12.5 359 16.9
2010-12-14 08:33:31 51°19.779 2°52.531 0.6 12.5 359 17.6
2010-12-14 08:34:30 51°19.98 2°52.522 359.5 12.5 357 16.8
2010-12-14 08:35:30 51°20.191 2°52.512 -999 12.6 358 17.6
2010-12-14 08:36:31 51°20.405 2°52.502 0.2 12.3 359 17.5
2010-12-14 08:37:30 51°20.61 2°52.49 0.2 12.4 358 16.2
2010-12-14 08:38:30 51°20.822 2°52.48 1.1 12.7 358 15.6
2010-12-14 08:39:30 51°21.036 2°52.47 0.6 12.6 358 16.2
2010-12-14 08:40:30 51°21.249 2°52.459 0.1 12.6 359 18.4
2010-12-14 08:41:30 51°21.463 2°52.449 0.4 13 359 19.6
2010-12-14 08:42:30 51°21.674 2°52.438 0.1 12.9 358 22.2
2010-12-14 08:43:30 51°21.889 2°52.429 0.4 13 359 24.9
2010-12-14 08:44:30 51°22.101 2°52.422 359.8 12.7 359 25.2
2010-12-14 08:45:30 51°22.315 2°52.414 0.1 13.2 359 24.9
2010-12-14 08:46:31 51°22.523 2°52.406 1.1 12.2 359 24.3
2010-12-14 08:47:31 51°22.727 2°52.398 0.3 11.9 359 23.3
2010-12-14 08:48:30 51°22.931 2°52.392 0.5 12.8 359 24
2010-12-14 08:49:30 51°23.143 2°52.388 0.4 12.5 359 23.1
2010-12-14 08:50:30 51°23.346 2°52.379 -999 12.7 359 21.8
2010-12-14 08:51:31 51°23.551 2°52.372 359.7 12.3 359 20.1
2010-12-14 08:52:30 51°23.761 2°52.386 4.9 12.9 3 15.8
2010-12-14 08:53:30 51°23.975 2°52.409 4.7 12.9 5 19.9
2010-12-14 08:54:31 51°24.189 2°52.434 6.6 12.1 5 19.8
2010-12-14 08:55:30 51°24.397 2°52.461 6.6 12.9 5 18.2
2010-12-14 08:56:30 51°24.605 2°52.486 6.1 12.8 4 21.8
2010-12-14 08:57:30 51°24.818 2°52.51 5.9 12.7 6 21.2
2010-12-14 08:58:30 51°25.028 2°52.533 5.9 12.6 3 23.8
2010-12-14 08:59:31 51°25.239 2°52.56 7.2 11.3 3 -999
2010-12-14 09:00:30 51°25.442 2°52.586 6.2 12.6 4 24.6
2010-12-14 09:01:30 51°25.649 2°52.618 10.6 12.7 10 27.1
2010-12-14 09:02:30 51°25.854 2°52.696 15.9 12.7 15 28.7
2010-12-14 09:03:30 51°26.056 2°52.781 16.1 12.8 14 27.6
2010-12-14 09:04:30 51°26.259 2°52.865 16.1 12.4 15 26.7
2010-12-14 09:05:30 51°26.465 2°52.948 15.4 12.7 12 28.3
2010-12-14 09:06:30 51°26.671 2°53.033 16 12.8 14 31.2
2010-12-14 09:07:30 51°26.877 2°53.109 13.1 12.7 12 29.7
2010-12-14 09:08:30 51°27.079 2°53.184 15.2 12.3 14 28.1
2010-12-14 09:09:31 51°27.28 2°53.261 14.9 12.4 14 30.2
2010-12-14 09:10:30 51°27.477 2°53.337 15.6 12.5 14 22
2010-12-14 09:11:30 51°27.684 2°53.419 15.2 13 14 22.7
2010-12-14 09:12:30 51°27.891 2°53.502 15.4 13.2 14 22.6
2010-12-14 09:13:30 51°28.1 2°53.585 15.2 12.7 15 20.3
2010-12-14 09:14:30 51°28.308 2°53.667 15.2 13 14 23.6
2010-12-14 09:15:30 51°28.52 2°53.749 15.6 13 14 25.1
2010-12-14 09:16:30 51°28.729 2°53.835 15.7 13.1 14 25.8
2010-12-14 09:17:30 51°28.931 2°53.919 16.7 12.7 13 26.9
2010-12-14 09:18:30 51°29.127 2°54.002 16.3 12.5 13 27.4
2010-12-14 09:19:30 51°29.332 2°54.087 16.5 12.8 15 28.7
2010-12-14 09:20:31 51°29.538 2°54.172 15.8 12.1 12 29.5
2010-12-14 09:21:30 51°29.738 2°54.253 16.3 12.9 15 31.5
2010-12-14 09:22:30 51°29.942 2°54.352 18 12.7 17 33.3
2010-12-14 09:23:30 51°30.139 2°54.445 18.2 12.8 17 34.3
2010-12-14 09:24:30 51°30.342 2°54.543 18.6 12.9 17 34.2
2010-12-14 09:25:30 51°30.545 2°54.64 18.3 12.4 16 34.4
2010-12-14 09:26:30 51°30.75 2°54.74 17.6 13.1 19 28.8
2010-12-14 09:27:30 51°30.958 2°54.828 15.6 13 14 19.6
2010-12-14 09:28:31 51°31.164 2°54.915 16.7 11.9 13 15.9
2010-12-14 09:29:30 51°31.366 2°55.001 16 13.1 14 19.7
2010-12-14 09:30:30 51°31.575 2°55.088 16.1 12.8 15 19.9
2010-12-14 09:31:30 51°31.785 2°55.177 16.5 12.5 15 18.4
2010-12-14 09:32:30 51°31.996 2°55.265 16.6 13.3 16 22
2010-12-14 09:33:30 51°32.204 2°55.353 16.3 12.3 15 23.6
2010-12-14 09:34:30 51°32.385 2°55.429 16.4 8.8 15 20.9
2010-12-14 09:35:30 51°32.504 2°55.476 16.2 6.4 15 23.6
2010-12-14 09:36:30 51°32.592 2°55.505 16.1 4.6 11 24.5
2010-12-14 09:37:30 51°32.647 2°55.518 16.2 2.5 1 21
2010-12-14 09:38:30 51°32.688 2°55.517 0.8 3.2 353 25.5
2010-12-14 09:39:30 51°32.734 2°55.482 325.6 2.7 323 28.2
2010-12-14 09:40:30 51°32.763 2°55.435 310 2.3 308 26.3
2010-12-14 09:41:30 51°32.796 2°55.362 304.2 6.6 309 25.1
2010-12-14 09:42:30 51°32.945 2°55.195 331 13 333 24.7
2010-12-14 09:43:30 51°33.147 2°55.202 28.9 12 33 26.1
2010-12-14 09:44:30 51°33.19 2°55.497 100.3 12.6 107 24
2010-12-14 09:45:30 51°33.098 2°55.794 117.4 12.3 110 25.2
2010-12-14 09:46:30 51°33.015 2°56.097 114.5 12.3 119 26.3
2010-12-14 09:47:30 51°32.916 2°56.368 112.6 8.9 107 24.1
2010-12-14 09:48:30 51°32.952 2°56.487 29.6 3.6 21 26
2010-12-14 09:49:30 51°32.998 2°56.479 338.6 2.4 330 22.5
2010-12-14 09:50:30 51°33.021 2°56.431 290.1 2.2 294 22.3
2010-12-14 09:51:30 51°33.027 2°56.371 263.9 2.5 275 25.5
2010-12-14 09:52:30 51°33.035 2°56.298 280.9 2.7 280 27.5
2010-12-14 09:53:30 51°33.05 2°56.24 292.1 2.3 301 26.8
2010-12-14 09:54:30 51°33.066 2°56.193 304.8 1.8 300 26.3
2010-12-14 09:55:30 51°33.08 2°56.161 313.1 1.2 314 24.4
2010-12-14 09:56:30 51°33.089 2°56.138 318.4 0.7 303 23.7
2010-12-14 09:57:30 51°33.094 2°56.118 323.5 0.6 299 24.4
2010-12-14 09:58:30 51°33.095 2°56.099 322.4 0.5 276 25.2
2010-12-14 09:59:30 51°33.095 2°56.082 316.1 0.6 266 26.6
2010-12-14 10:00:30 51°33.127 2°56.017 313.2 6.5 312 26.7
2010-12-14 10:01:30 51°33.192 2°55.754 279.5 12.8 279 26.4
2010-12-14 10:02:30 51°33.198 2°55.406 265.1 12.6 260 25.9
2010-12-14 10:03:30 51°33.077 2°55.149 201.9 11.9 201 24.8
2010-12-14 10:04:30 51°32.907 2°55.263 137.7 10.2 141 24.9
2010-12-14 10:05:30 51°32.852 2°55.392 115.6 3.7 117 26.6
2010-12-14 10:06:30 51°32.832 2°55.452 118.9 1.9 124 25.6
2010-12-14 10:07:30 51°32.819 2°55.482 119.2 1.1 136 26.1
2010-12-14 10:08:30 51°32.81 2°55.492 120.3 0.5 167 26.5
2010-12-14 10:09:30 51°32.805 2°55.491 126.5 0.3 183 26.1
2010-12-14 10:10:30 51°32.8 2°55.483 129.6 0.6 239 27.5
2010-12-14 10:11:30 51°32.796 2°55.471 132 0.7 248 27.8
2010-12-14 10:12:30 51°32.794 2°55.456 135 0.6 255 28
2010-12-14 10:13:30 51°32.792 2°55.44 139 0.9 255 27.7
2010-12-14 10:14:30 51°32.792 2°55.422 146.7 0.8 261 27.3
2010-12-14 10:15:30 51°32.791 2°55.403 148.5 0.8 274 26.8
2010-12-14 10:16:30 51°32.79 2°55.383 150.2 0.7 266 25.2
2010-12-14 10:17:30 51°32.79 2°55.365 153.6 0.5 255 24.1
2010-12-14 10:18:30 51°32.787 2°55.346 151.9 0.7 260 22.4
2010-12-14 10:19:30 51°32.786 2°55.33 149.4 0.5 262 20
2010-12-14 10:20:30 51°32.781 2°55.317 141.1 0.5 208 23
2010-12-14 10:21:30 51°32.773 2°55.316 122.5 0.5 183 24.1
2010-12-14 10:22:30 51°32.765 2°55.323 106.1 0.5 110 23.3
2010-12-14 10:23:30 51°32.761 2°55.332 93.4 0.2 180 23
2010-12-14 10:24:30 51°32.758 2°55.335 97.6 1.2 116 23.1
2010-12-14 10:25:30 51°32.721 2°55.362 173.3 3.3 192 24.4
2010-12-14 10:26:30 51°32.685 2°55.29 250.6 3.9 263 24.7
2010-12-14 10:27:30 51°32.702 2°55.198 297.7 3.3 296 25.1
2010-12-14 10:28:30 51°32.727 2°55.13 302 2.7 306 24.3
2010-12-14 10:29:30 51°32.748 2°55.077 305.2 2.2 301 23.3
2010-12-14 10:30:30 51°32.787 2°55.005 322.8 6.1 325 23.4
2010-12-14 10:31:30 51°32.905 2°54.986 5.7 8.2 3 25.3
2010-12-14 10:32:30 51°33.039 2°55.045 27.7 8.4 28 25.6
2010-12-14 10:33:30 51°33.158 2°55.161 38 8 35 23
2010-12-14 10:34:30 51°33.224 2°55.338 85 7.8 87 25.9
2010-12-14 10:35:30 51°33.194 2°55.539 109 6.8 113 26
2010-12-14 10:36:30 51°33.165 2°55.687 107.2 5.3 108 26.1
2010-12-14 10:37:30 51°33.141 2°55.802 105.7 3.5 106 25.2
2010-12-14 10:38:30 51°33.13 2°55.871 98.9 2.2 106 26.9
2010-12-14 10:39:30 51°33.126 2°55.914 96 1.3 106 26.5
2010-12-14 10:40:30 51°33.125 2°55.941 92.4 0.8 86 24.7
2010-12-14 10:41:30 51°33.125 2°55.96 89.4 0.6 89 23.2
2010-12-14 10:42:30 51°33.125 2°55.975 86.7 0.3 112 25.3
2010-12-14 10:43:30 51°33.126 2°55.982 85.3 0.2 61 25.5
2010-12-14 10:44:30 51°33.124 2°55.981 86.5 0.1 196 24.8
2010-12-14 10:45:30 51°33.124 2°55.975 86.1 0.4 279 24.6
2010-12-14 10:46:30 51°33.122 2°55.965 90.3 0.6 241 23.8
2010-12-14 10:47:30 51°33.12 2°55.951 98.1 0.5 260 23.9
2010-12-14 10:48:30 51°33.118 2°55.934 106.9 0.7 262 25.1
2010-12-14 10:49:30 51°33.116 2°55.916 113.8 0.6 266 25.9
2010-12-14 10:50:30 51°33.115 2°55.901 122.7 0.5 262 26.4
2010-12-14 10:51:30 51°33.113 2°55.883 133.4 0.7 247 26.5
2010-12-14 10:52:30 51°33.111 2°55.867 138.5 0.6 258 26.7
2010-12-14 10:53:30 51°33.102 2°55.861 131.2 1.1 158 26
2010-12-14 10:54:30 51°33.094 2°55.897 82.5 1.8 86 26.9
2010-12-14 10:55:30 51°33.111 2°55.955 62.6 2.3 58 24
2010-12-14 10:56:30 51°33.126 2°55.997 76 1.5 74 26
2010-12-14 10:57:30 51°33.127 2°56.024 100.8 0.7 111 26.1
2010-12-14 10:58:30 51°33.121 2°56.038 117 0.6 146 25.9
2010-12-14 10:59:30 51°33.114 2°56.043 115.3 0.4 172 26
2010-12-14 11:00:30 51°33.11 2°56.041 109.6 0.4 211 26.1
2010-12-14 11:01:30 51°33.107 2°56.032 107.5 0.5 258 25
2010-12-14 11:02:30 51°33.104 2°56.017 107.1 0.7 256 25.9
2010-12-14 11:03:30 51°33.102 2°56.001 108.9 0.7 255 24.9
2010-12-14 11:04:30 51°33.1 2°55.983 115.3 0.7 263 23.2
2010-12-14 11:05:30 51°33.098 2°55.965 123.5 0.6 271 24.1
2010-12-14 11:06:30 51°33.094 2°55.951 130.7 0.6 199 25.5
2010-12-14 11:07:30 51°33.079 2°55.963 125.8 1.3 142 25.8
2010-12-14 11:08:30 51°33.064 2°55.994 112.8 1.4 117 24.9
2010-12-14 11:09:30 51°33.052 2°56.019 107.5 0.9 123 25.1
2010-12-14 11:10:30 51°33.044 2°56.034 102.3 0.5 114 25
2010-12-14 11:11:30 51°33.042 2°56.043 98.6 0.4 173 25.9
2010-12-14 11:12:30 51°33.038 2°56.045 96.8 0.1 145 25.3
2010-12-14 11:13:30 51°33.035 2°56.04 95.4 0.4 238 25.8
2010-12-14 11:14:30 51°33.033 2°56.034 98 0.1 93 25.5
2010-12-14 11:15:30 51°33.027 2°56.048 99.5 0.9 107 25.8
2010-12-14 11:16:30 51°33.023 2°56.076 96.6 1.3 104 26.1
2010-12-14 11:17:30 51°33.017 2°56.112 95.1 1.4 100 25.6
2010-12-14 11:18:30 51°33.014 2°56.151 94.3 1.6 87 23.3
2010-12-14 11:19:30 51°33.004 2°56.202 113.4 2.8 118 23.4
2010-12-14 11:20:30 51°32.95 2°56.261 143.4 5.5 149 24.8
2010-12-14 11:21:30 51°32.844 2°56.293 173.1 7.1 175 23.5
2010-12-14 11:22:30 51°32.718 2°56.286 180.6 7.8 186 23.6
2010-12-14 11:23:30 51°32.599 2°56.215 216.8 7.7 226 23.1
2010-12-14 11:24:30 51°32.578 2°56.02 280.4 8 282 24.2
2010-12-14 11:25:30 51°32.629 2°55.877 304.7 4.9 301 25.3
2010-12-14 11:26:30 51°32.66 2°55.788 302.2 3.1 299 24
2010-12-14 11:27:30 51°32.679 2°55.727 308.7 2.1 299 25
2010-12-14 11:28:30 51°32.693 2°55.693 325.4 1.1 304 25.5
2010-12-14 11:29:30 51°32.695 2°55.671 332.9 0.8 260 25.9
2010-12-14 11:30:30 51°32.692 2°55.652 327.8 0.7 249 26.4
2010-12-14 11:31:30 51°32.688 2°55.634 318.6 0.5 258 27.3
2010-12-14 11:32:30 51°32.684 2°55.617 311.9 0.7 242 27.2
2010-12-14 11:33:30 51°32.68 2°55.601 305.4 0.9 257 27.2
2010-12-14 11:34:30 51°32.68 2°55.549 259.5 2.9 256 25.9
2010-12-14 11:35:30 51°32.646 2°55.495 189.7 2.8 193 22.7
2010-12-14 11:36:30 51°32.601 2°55.503 151.7 3 161 23.6
2010-12-14 11:37:30 51°32.554 2°55.536 141.9 2.7 153 23.2
2010-12-14 11:38:30 51°32.523 2°55.564 135.4 1.8 151 22.3
2010-12-14 11:39:30 51°32.5 2°55.577 135.8 1.2 165 21.3
2010-12-14 11:40:30 51°32.483 2°55.581 132.7 0.9 185 20.3
2010-12-14 11:41:30 51°32.471 2°55.582 126 0.6 174 21.2
2010-12-14 11:42:30 51°32.461 2°55.577 121.3 0.6 201 22.5
2010-12-14 11:43:30 51°32.454 2°55.571 116.8 0.3 200 22
2010-12-14 11:44:30 51°32.447 2°55.563 109.6 0.4 232 21.9
2010-12-14 11:45:30 51°32.441 2°55.549 109.6 0.5 244 20.7
2010-12-14 11:46:30 51°32.436 2°55.531 114.6 0.8 246 22.1
2010-12-14 11:47:30 51°32.43 2°55.513 116.6 0.9 245 23.2
2010-12-14 11:48:30 51°32.424 2°55.495 123.6 0.9 245 22.9
2010-12-14 11:49:30 51°32.418 2°55.478 127.2 0.7 244 22.4
2010-12-14 11:50:30 51°32.413 2°55.458 131.3 0.9 243 22.5
2010-12-14 11:51:30 51°32.408 2°55.438 137.7 0.8 250 21.4
2010-12-14 11:52:30 51°32.402 2°55.418 141.1 0.9 240 18.1
2010-12-14 11:53:30 51°32.395 2°55.397 146.2 0.8 238 21.3
2010-12-14 11:54:30 51°32.387 2°55.378 148.5 0.9 232 22.7
2010-12-14 11:55:30 51°32.378 2°55.361 148 0.9 232 22.9
2010-12-14 11:56:30 51°32.37 2°55.343 143 1 233 21.9
2010-12-14 11:57:30 51°32.361 2°55.325 138.7 0.9 227 20.4
2010-12-14 11:58:30 51°32.339 2°55.334 125.5 3.1 138 18.1
2010-12-14 11:59:30 51°32.317 2°55.452 86.8 5.8 90 22.5
2010-12-14 12:00:30 51°32.351 2°55.609 57.5 6.6 56 22.8
2010-12-14 12:01:30 51°32.438 2°55.719 27.5 7 26 23.3
2010-12-14 12:02:30 51°32.518 2°55.833 59.8 6.7 62 20.8
2010-12-14 12:03:30 51°32.529 2°55.954 94.9 3.2 101 21.9
2010-12-14 12:04:30 51°32.511 2°56.014 110.4 2.1 125 24.6
2010-12-14 12:05:30 51°32.493 2°56.045 115 1.4 138 24.2
2010-12-14 12:06:30 51°32.477 2°56.06 118.7 0.9 150 23.8
2010-12-14 12:07:30 51°32.463 2°56.064 117.2 0.9 179 23.1
2010-12-14 12:08:30 51°32.45 2°56.062 114.4 0.9 196 22.3
2010-12-14 12:09:30 51°32.438 2°56.057 112.2 0.8 199 21.4
2010-12-14 12:10:30 51°32.428 2°56.048 112.7 0.8 214 22.5
2010-12-14 12:11:30 51°32.418 2°56.036 116.2 0.8 222 22.8
2010-12-14 12:12:30 51°32.409 2°56.02 119.9 0.8 234 21.6
2010-12-14 12:13:30 51°32.4 2°56.002 123.3 1 229 21.6
2010-12-14 12:14:30 51°32.39 2°55.984 130.3 0.9 224 21.4
2010-12-14 12:15:30 51°32.38 2°55.966 135.3 1 230 20.7
2010-12-14 12:16:30 51°32.37 2°55.947 141.3 1 232 19.8
2010-12-14 12:17:30 51°32.359 2°55.929 142.3 0.9 226 19.9
2010-12-14 12:18:30 51°32.338 2°55.938 108.2 2 134 22.4
2010-12-14 12:19:30 51°32.344 2°56.002 60.4 4.3 63 18.8
2010-12-14 12:20:30 51°32.417 2°56.101 20.2 6.6 13 22.2
2010-12-14 12:21:30 51°32.525 2°56.035 321.2 7.6 314 24.9
2010-12-14 12:22:30 51°32.584 2°55.867 289.1 5.7 286 23
2010-12-14 12:23:30 51°32.586 2°55.749 262.3 3.7 261 22.2
2010-12-14 12:24:30 51°32.574 2°55.669 256.8 2.7 256 22.5
2010-12-14 12:25:30 51°32.567 2°55.599 283.2 2.6 271 22.7
2010-12-14 12:26:30 51°32.577 2°55.546 321.2 1.9 294 24
2010-12-14 12:27:30 51°32.596 2°55.513 352.5 1.4 320 23.5
2010-12-14 12:28:30 51°32.611 2°55.496 11.5 0.8 325 23.6
2010-12-14 12:29:30 51°32.621 2°55.484 21 0.6 314 24.1
2010-12-14 12:30:30 51°32.626 2°55.473 24 0.7 324 23.4
2010-12-14 12:31:30 51°32.638 2°55.507 83.2 2.6 97 22.9
2010-12-14 12:32:30 51°32.608 2°55.547 144.6 2.4 173 23.3
2010-12-14 12:33:30 51°32.567 2°55.533 195.1 3.2 208 23.1
2010-12-14 12:34:30 51°32.534 2°55.457 260.1 3.7 256 23.6
2010-12-14 12:35:30 51°32.549 2°55.371 321.1 3.1 309 22.1
2010-12-14 12:36:30 51°32.614 2°55.342 5.1 6.5 -999 24.4
2010-12-14 12:37:30 51°32.708 2°55.33 355.6 4 344 24.1
2010-12-14 12:38:30 51°32.753 2°55.301 348.4 2.2 328 23.8
2010-12-14 12:39:30 51°32.775 2°55.272 347.3 1.3 313 24.2
2010-12-14 12:40:30 51°32.786 2°55.245 350 1.2 300 24.8
2010-12-14 12:41:30 51°32.789 2°55.22 355 0.8 274 24.2
2010-12-14 12:42:30 51°32.786 2°55.197 359.4 1 257 23.1
2010-12-14 12:43:30 51°32.775 2°55.172 355.7 1.2 226 23.4
2010-12-14 12:44:30 51°32.76 2°55.147 341.2 1.1 221 24.7
2010-12-14 12:45:30 51°32.746 2°55.126 330.6 1.1 223 24.4
2010-12-14 12:46:30 51°32.733 2°55.106 320.4 1.1 222 23.8
2010-12-14 12:47:30 51°32.718 2°55.084 312.8 1.3 227 21.6
2010-12-14 12:48:30 51°32.705 2°55.064 306.5 0.9 231 23.7
2010-12-14 12:49:30 51°32.692 2°55.043 303.5 1.1 217 24.8
2010-12-14 12:50:30 51°32.678 2°55.023 296.6 0.9 224 24.3
2010-12-14 12:51:30 51°32.665 2°55.002 295.5 1.1 224 23.5
2010-12-14 12:52:30 51°32.652 2°54.98 294.3 1.2 228 21.7
2010-12-14 12:53:30 51°32.64 2°54.954 296.2 1.2 231 23.2
2010-12-14 12:54:30 51°32.634 2°54.917 309.3 1.7 268 22.7
2010-12-14 12:55:30 51°32.652 2°54.866 342 2.4 319 21.5
2010-12-14 12:56:30 51°32.683 2°54.865 40.8 2 31 21.3
2010-12-14 12:57:30 51°32.707 2°54.919 72.7 2.7 83 23.5
2010-12-14 12:58:30 51°32.691 2°54.969 112.1 1.7 130 23.2
2010-12-14 12:59:30 51°32.666 2°54.984 122.4 1.4 168 23.2
2010-12-14 13:00:30 51°32.643 2°54.987 121 1.5 186 21.4
2010-12-14 13:01:30 51°32.624 2°54.982 119.6 1.5 197 22.2
2010-12-14 13:02:30 51°32.606 2°54.974 118.6 1.1 198 23.3
2010-12-14 13:03:30 51°32.589 2°54.962 119.2 0.9 210 22.5
2010-12-14 13:04:30 51°32.572 2°54.946 118.6 1.2 209 19.2
2010-12-14 13:05:30 51°32.554 2°54.926 122 1.6 214 22.7
2010-12-14 13:06:30 51°32.538 2°54.909 124.3 1.2 214 23.5
2010-12-14 13:07:30 51°32.521 2°54.894 126 1.4 203 23.2
2010-12-14 13:08:30 51°32.5 2°54.889 121.4 1.4 188 23.3
2010-12-14 13:09:30 51°32.479 2°54.886 115.9 1 184 20.5
2010-12-14 13:10:30 51°32.461 2°54.879 113.5 0.8 195 22.2
2010-12-14 13:11:30 51°32.443 2°54.867 115.8 1.2 208 23.9
2010-12-14 13:12:30 51°32.427 2°54.855 117.9 1 209 22.7
2010-12-14 13:13:30 51°32.409 2°54.845 118.9 1.1 207 22.7
2010-12-14 13:14:30 51°32.393 2°54.831 119.8 1 211 21.8
2010-12-14 13:15:30 51°32.376 2°54.811 123.9 1.1 218 21.1
2010-12-14 13:16:30 51°32.353 2°54.797 143.9 2.3 176 23.4
2010-12-14 13:17:30 51°32.254 2°54.797 175.5 8.9 184 19.1
2010-12-14 13:18:30 51°32.075 2°54.773 180.8 11.8 180 20.9
2010-12-14 13:19:30 51°31.863 2°54.743 180.8 12.8 183 19.2
2010-12-14 13:20:30 51°31.646 2°54.693 186.6 12.9 193 18.3
2010-12-14 13:21:30 51°31.457 2°54.639 184.5 10 190 19.2
2010-12-14 13:22:30 51°31.312 2°54.591 184.5 8.5 192 17
2010-12-14 13:23:30 51°31.175 2°54.547 184.6 8.3 190 18.3
2010-12-14 13:24:30 51°31.039 2°54.502 184.7 8.3 193 18.9
2010-12-14 13:25:30 51°30.904 2°54.459 185.2 8.2 188 18.5
2010-12-14 13:26:30 51°30.768 2°54.413 184.8 8.4 196 21.8
2010-12-14 13:27:30 51°30.635 2°54.367 183.8 8 191 30.6
2010-12-14 13:28:30 51°30.506 2°54.323 183.7 7.8 193 33.9
2010-12-14 13:29:30 51°30.38 2°54.281 184.7 7.9 195 35.2
2010-12-14 13:30:30 51°30.252 2°54.238 183.2 7.9 192 32.5
2010-12-14 13:31:30 51°30.121 2°54.208 180.6 7.9 185 30.8
2010-12-14 13:32:30 51°29.99 2°54.18 180.1 8 187 31.9
2010-12-14 13:33:30 51°29.857 2°54.15 180 8 188 31.5
2010-12-14 13:34:30 51°29.725 2°54.121 180.8 8 188 31.1
2010-12-14 13:35:30 51°29.594 2°54.091 178.7 8.1 190 30
2010-12-14 13:36:30 51°29.461 2°54.06 180.4 8 188 28.9
2010-12-14 13:37:30 51°29.329 2°54.028 180.3 8 188 27.9
2010-12-14 13:38:30 51°29.195 2°53.997 180.7 8.1 188 27.5
2010-12-14 13:39:30 51°29.062 2°53.966 179.4 8 187 26.6
2010-12-14 13:40:30 51°28.928 2°53.933 180.8 8.2 189 26.1
2010-12-14 13:41:30 51°28.794 2°53.902 180.1 8.2 188 25.1
2010-12-14 13:42:30 51°28.659 2°53.873 180.1 8.2 187 24.5
2010-12-14 13:43:30 51°28.524 2°53.841 180.4 8.2 187 24.8
2010-12-14 13:44:30 51°28.388 2°53.81 180.3 8.4 188 22.2
2010-12-14 13:45:30 51°28.252 2°53.777 180.5 8.3 188 20
2010-12-14 13:46:30 51°28.115 2°53.745 180.8 8.2 186 20.4
2010-12-14 13:47:30 51°27.978 2°53.713 179.2 8.2 189 19
2010-12-14 13:48:30 51°27.84 2°53.684 180.4 8.3 188 21.2
2010-12-14 13:49:30 51°27.703 2°53.654 179.7 8.3 190 22.4
2010-12-14 13:50:30 51°27.567 2°53.619 180.9 8.2 191 24
2010-12-14 13:51:30 51°27.433 2°53.582 180 8.2 189 26.8
2010-12-14 13:52:30 51°27.3 2°53.546 180.6 8.1 189 27.4
2010-12-14 13:53:30 51°27.166 2°53.509 180.7 8.3 191 26.6
2010-12-14 13:54:30 51°27.032 2°53.48 177.3 8.1 188 27.6
2010-12-14 13:55:30 51°26.898 2°53.459 177 8 183 27.9
2010-12-14 13:56:30 51°26.765 2°53.436 178.3 8.2 188 28.8
2010-12-14 13:57:30 51°26.632 2°53.414 177 8 187 31.7
2010-12-14 13:58:30 51°26.5 2°53.394 177.2 8 187 31.5
2010-12-14 13:59:30 51°26.369 2°53.375 177.6 7.9 186 31.7
2010-12-14 14:00:30 51°26.237 2°53.353 177.5 7.9 188 31.8
2010-12-14 14:01:30 51°26.104 2°53.336 177.8 8 182 30.2
2010-12-14 14:02:30 51°25.971 2°53.317 177.2 8.1 183 29.2
2010-12-14 14:03:30 51°25.838 2°53.301 177.7 7.9 183 26.7
2010-12-14 14:04:30 51°25.706 2°53.282 178 8.1 187 26
2010-12-14 14:05:30 51°25.573 2°53.263 177.1 8.2 189 24.1
2010-12-14 14:06:30 51°25.44 2°53.244 177.5 8 186 23.5
2010-12-14 14:07:30 51°25.305 2°53.224 177.7 8.1 183 23.2
2010-12-14 14:08:30 51°25.17 2°53.206 177 8.1 183 22.6
2010-12-14 14:09:30 51°25.035 2°53.185 177.5 8.2 186 20.9
2010-12-14 14:10:30 51°24.886 2°53.163 176.5 10.3 184 19.1
2010-12-14 14:11:30 51°24.701 2°53.132 179.7 11.6 186 19.7
2010-12-14 14:12:30 51°24.51 2°53.105 179.2 11.6 182 18.8
2010-12-14 14:13:30 51°24.319 2°53.072 178.9 11.4 186 16
2010-12-14 14:14:30 51°24.12 2°53.033 181.5 12.3 188 18.1
2010-12-14 14:15:30 51°23.915 2°52.991 182.1 12.8 189 19.2
2010-12-14 14:16:30 51°23.71 2°52.951 180.3 12.2 187 21
2010-12-14 14:17:30 51°23.505 2°52.916 179.1 12.4 186 21.1
2010-12-14 14:18:30 51°23.3 2°52.887 176.3 12.2 179 21.1
2010-12-14 14:19:30 51°23.094 2°52.867 176 12.3 182 21
2010-12-14 14:20:30 51°22.887 2°52.822 182.8 12.4 192 21.8
2010-12-14 14:21:30 51°22.678 2°52.768 182 12.5 189 22.6
2010-12-14 14:22:30 51°22.471 2°52.723 179.9 12.6 188 22.8
2010-12-14 14:23:30 51°22.266 2°52.683 180.3 12.4 188 24
2010-12-14 14:24:30 51°22.06 2°52.638 181.9 12.6 190 24.1
2010-12-14 14:25:30 51°21.853 2°52.606 180.8 12.5 185 22.4
2010-12-14 14:26:30 51°21.647 2°52.561 181.1 12.4 187 20
2010-12-14 14:27:30 51°21.44 2°52.533 178 12.5 186 17.6
2010-12-14 14:28:30 51°21.231 2°52.488 180.2 12.6 190 16.9
2010-12-14 14:29:30 51°21.025 2°52.449 181.7 12.9 186 15.8
2010-12-14 14:30:30 51°20.814 2°52.409 181.1 12.6 187 14.3
2010-12-14 14:31:30 51°20.607 2°52.366 181.1 13.2 187 14
2010-12-14 14:32:30 51°20.401 2°52.327 178.6 13.2 187 15.7
2010-12-14 14:33:30 51°20.196 2°52.294 176.4 12.3 184 16.1
2010-12-14 14:34:30 51°19.989 2°52.254 180.8 12.9 187 16.4
2010-12-14 14:35:30 51°19.782 2°52.209 181.2 12.8 189 16.2
2010-12-14 14:36:30 51°19.576 2°52.193 171.5 11.9 180 15.9
2010-12-14 14:37:30 51°19.369 2°52.208 170.4 13.1 177 15.7
2010-12-14 14:38:30 51°19.161 2°52.225 170.2 12.5 177 14.8
2010-12-14 14:39:30 51°18.953 2°52.241 170.8 12.6 179 13.8
2010-12-14 14:40:30 51°18.743 2°52.249 172 12.7 180 12.8
2010-12-14 14:41:30 51°18.536 2°52.254 173 12.7 180 12
2010-12-14 14:42:30 51°18.328 2°52.263 172.4 12.3 180 11.5
2010-12-14 14:43:30 51°18.117 2°52.27 173.3 13.1 178 11.1
2010-12-14 14:44:30 51°17.908 2°52.284 171.3 12.7 177 10.8
2010-12-14 14:45:30 51°17.699 2°52.3 172.1 12.7 178 10.5
2010-12-14 14:46:30 51°17.489 2°52.313 171.9 12.5 179 10.5
2010-12-14 14:47:30 51°17.279 2°52.328 173 12.8 177 10.7
2010-12-14 14:48:29 51°17.076 2°52.369 161.8 12.5 166 10.2
2010-12-14 14:49:30 51°16.879 2°52.476 149.7 12.1 156 9.9
2010-12-14 14:50:30 51°16.695 2°52.618 148.7 12.3 155 10.5
2010-12-14 14:51:30 51°16.511 2°52.758 150.4 12.3 156 11.9
2010-12-14 14:52:30 51°16.333 2°52.915 144.6 11.9 152 12.2
2010-12-14 14:53:30 51°16.162 2°53.082 143.7 12.1 149 12.3
2010-12-14 14:54:30 51°15.99 2°53.234 146.9 11.9 153 11.9
2010-12-14 14:55:30 51°15.821 2°53.398 137 11.7 145 11.7
2010-12-14 14:56:30 51°15.668 2°53.597 135.1 12.1 138 11.6
2010-12-14 14:57:30 51°15.51 2°53.796 135.6 12.3 139 12
2010-12-14 14:58:30 51°15.349 2°53.994 137.3 12.2 143 11.3
2010-12-14 14:59:30 51°15.187 2°54.187 136.9 12.4 142 11.3
2010-12-14 15:00:30 51°15.022 2°54.379 138.1 12.3 143 10.8
2010-12-14 15:01:31 51°14.862 2°54.587 134.6 12.1 140 -999
2010-12-14 15:02:30 51°14.71 2°54.791 136.9 12.2 139 12.1
2010-12-14 15:03:30 51°14.549 2°54.984 140.7 12 145 11.8
2010-12-14 15:04:31 51°14.38 2°55.169 143.6 12.1 147 10.7
2010-12-14 15:05:34 51°14.224 2°55.33 147 9.4 152 -999
2010-12-14 15:06:33 51°14.101 2°55.428 152.2 7.8 155 -999
2010-12-14 15:07:34 51°13.979 2°55.517 153.2 8 155 -999
2010-12-14 15:08:33 51°13.861 2°55.602 153.2 7.9 155 10.2
2010-12-14 15:09:31 51°13.762 2°55.712 134 6.6 135 10.4
2010-12-14 15:10:31 51°13.706 2°55.822 124.2 4.5 126 11.3
2010-12-14 15:11:30 51°13.673 2°55.906 113.3 3.3 114 9.1